createdAt,value
2023-05-25T00:02:08.425Z,20.58
2023-05-25T00:04:35.474Z,20.69
2023-05-25T00:07:02.462Z,20.67
2023-05-25T00:09:30.555Z,20.72
2023-05-25T00:11:57.425Z,20.84
2023-05-25T00:14:24.048Z,20.85
2023-05-25T00:16:50.867Z,20.97
2023-05-25T00:19:17.659Z,20.99
2023-05-25T00:21:44.362Z,21.03
2023-05-25T00:24:11.283Z,21.13
2023-05-25T00:26:39.519Z,21.15
2023-05-25T00:29:06.177Z,21.15
2023-05-25T00:31:33.110Z,21.10
2023-05-25T00:34:00.496Z,21.23
2023-05-25T00:36:27.202Z,21.27
2023-05-25T00:38:53.930Z,21.25
2023-05-25T00:41:20.909Z,21.30
2023-05-25T00:43:48.980Z,21.37
2023-05-25T00:46:16.040Z,21.42
2023-05-25T00:48:43.469Z,21.43
2023-05-25T00:51:12.497Z,21.37
2023-05-25T00:53:39.107Z,21.41
2023-05-25T00:56:13.722Z,21.35
2023-05-25T00:58:42.635Z,21.34
2023-05-25T01:01:13.480Z,21.26
2023-05-25T01:03:44.207Z,21.41
2023-05-25T01:06:14.397Z,21.39
2023-05-25T01:08:47.273Z,21.40
2023-05-25T01:11:15.339Z,21.39
2023-05-25T01:13:42.902Z,21.45
2023-05-25T01:16:12.149Z,21.34
2023-05-25T01:18:38.920Z,21.39
2023-05-25T01:21:12.303Z,21.49
2023-05-25T01:23:43.125Z,21.55
2023-05-25T01:26:15.449Z,21.54
2023-05-25T01:28:47.170Z,21.59
2023-05-25T01:31:14.930Z,21.57
2023-05-25T01:33:43.490Z,21.64
2023-05-25T01:36:11.642Z,21.69
2023-05-25T01:38:39.618Z,21.58
2023-05-25T01:41:06.248Z,21.68
2023-05-25T01:43:33.074Z,21.70
2023-05-25T01:46:13.291Z,21.24
2023-05-25T01:48:52.300Z,20.97
2023-05-25T01:51:28.278Z,21.25
2023-05-25T01:54:01.066Z,21.45
2023-05-25T01:56:30.876Z,21.44
2023-05-25T01:58:59.560Z,21.33
2023-05-25T02:01:28.139Z,21.48
2023-05-25T02:03:56.785Z,21.56
2023-05-25T02:06:24.847Z,21.60
2023-05-25T02:08:51.526Z,21.61
2023-05-25T02:11:19.036Z,21.49
2023-05-25T02:13:45.704Z,21.15
2023-05-25T02:18:39.175Z,21.11
2023-05-25T02:21:05.872Z,21.09
2023-05-25T02:23:34.018Z,20.99
2023-05-25T02:26:00.781Z,20.92
2023-05-25T02:28:27.437Z,20.93
2023-05-25T02:30:54.202Z,20.85
2023-05-25T02:33:21.091Z,21.05
2023-05-25T02:35:49.473Z,21.05
2023-05-25T02:38:16.332Z,21.23
2023-05-25T02:40:45.985Z,21.49
2023-05-25T02:43:12.621Z,21.36
2023-05-25T02:45:39.233Z,21.53
2023-05-25T02:48:05.947Z,21.48
2023-05-25T02:50:32.610Z,21.47
2023-05-25T02:52:59.263Z,21.51
2023-05-25T02:55:25.981Z,21.59
2023-05-25T02:57:54.021Z,21.56
2023-05-25T03:00:20.637Z,21.60
2023-05-25T03:02:47.586Z,21.53
2023-05-25T03:05:14.708Z,21.43
2023-05-25T03:07:41.451Z,21.55
2023-05-25T03:10:08.821Z,21.63
2023-05-25T03:12:35.514Z,21.60
2023-05-25T03:15:03.863Z,21.71
2023-05-25T03:17:30.632Z,21.79
2023-05-25T03:19:57.327Z,21.78
2023-05-25T03:22:25.004Z,21.74
2023-05-25T03:24:51.875Z,21.55
2023-05-25T03:27:18.515Z,21.46
2023-05-25T03:29:45.267Z,21.55
2023-05-25T03:32:15.562Z,21.61
2023-05-25T03:34:42.287Z,21.43
2023-05-25T03:37:08.980Z,21.16
2023-05-25T03:39:35.638Z,21.12
2023-05-25T03:42:02.290Z,21.02
2023-05-25T03:44:29.024Z,21.40
2023-05-25T03:46:55.874Z,21.43
2023-05-25T03:49:23.928Z,21.22
2023-05-25T03:51:50.527Z,21.15
2023-05-25T03:54:17.322Z,21.23
2023-05-25T03:56:44.016Z,21.27
2023-05-25T03:59:10.684Z,21.36
2023-05-25T04:01:37.489Z,21.32
2023-05-25T04:04:04.518Z,21.21
2023-05-25T04:06:32.767Z,21.38
2023-05-25T04:08:59.456Z,21.47
2023-05-25T04:11:26.451Z,21.55
2023-05-25T04:13:53.053Z,21.53
2023-05-25T04:16:20.081Z,21.63
2023-05-25T04:18:46.695Z,21.69
2023-05-25T04:21:13.361Z,21.72
2023-05-25T04:23:41.882Z,21.70
2023-05-25T04:26:08.676Z,21.64
2023-05-25T04:28:38.024Z,21.70
2023-05-25T04:31:05.311Z,21.65
2023-05-25T04:33:32.855Z,21.53
2023-05-25T04:35:59.802Z,21.62
2023-05-25T04:38:26.689Z,21.56
2023-05-25T04:40:54.700Z,21.59
2023-05-25T04:43:21.366Z,21.63
2023-05-25T04:45:48.239Z,21.60
2023-05-25T04:48:14.985Z,21.63
2023-05-25T04:50:41.700Z,21.65
2023-05-25T04:53:08.779Z,21.59
2023-05-25T04:55:35.415Z,21.54
2023-05-25T04:58:04.219Z,21.46
2023-05-25T05:00:31.247Z,21.41
2023-05-25T05:02:58.435Z,21.50
2023-05-25T05:05:25.098Z,21.50
2023-05-25T05:07:52.019Z,21.46
2023-05-25T05:10:18.650Z,21.55
2023-05-25T05:12:45.321Z,21.56
2023-05-25T05:15:13.596Z,21.53
2023-05-25T05:17:40.225Z,21.64
2023-05-25T05:20:08.464Z,21.71
2023-05-25T05:22:35.214Z,21.59
2023-05-25T05:25:01.810Z,21.57
2023-05-25T05:27:28.471Z,21.60
2023-05-25T05:29:55.461Z,21.59
2023-05-25T05:32:23.526Z,21.56
2023-05-25T05:34:50.175Z,21.49
2023-05-25T05:37:16.855Z,21.57
2023-05-25T05:39:43.489Z,21.58
2023-05-25T05:42:10.180Z,21.67
2023-05-25T05:44:36.978Z,21.76
2023-05-25T05:47:04.065Z,21.83
2023-05-25T05:49:32.590Z,21.94
2023-05-25T05:51:59.418Z,21.92
2023-05-25T05:54:26.222Z,21.99
2023-05-25T05:56:53.177Z,22.09
2023-05-25T05:59:21.369Z,21.99
2023-05-25T06:01:48.046Z,22.02
2023-05-25T06:04:14.808Z,22.13
2023-05-25T06:06:42.925Z,21.89
2023-05-25T06:09:09.535Z,22.15
2023-05-25T06:11:37.156Z,22.32
2023-05-25T06:14:04.100Z,22.50
2023-05-25T06:16:30.828Z,22.54
2023-05-25T06:18:57.557Z,22.72
2023-05-25T06:21:24.457Z,23.03
2023-05-25T06:23:52.481Z,23.10
2023-05-25T06:26:19.089Z,23.33
2023-05-25T06:28:45.708Z,23.46
2023-05-25T06:31:12.362Z,23.36
2023-05-25T06:33:39.005Z,23.52
2023-05-25T06:36:06.694Z,23.96
2023-05-25T06:38:33.319Z,24.55
2023-05-25T06:41:01.279Z,24.92
2023-05-25T06:43:28.187Z,25.23
2023-05-25T06:45:54.899Z,25.51
2023-05-25T06:48:21.562Z,26.14
2023-05-25T06:50:48.447Z,25.82
2023-05-25T06:53:15.494Z,25.33
2023-05-25T06:55:42.303Z,25.25
2023-05-25T06:58:10.563Z,25.46
2023-05-25T07:00:37.355Z,25.82
2023-05-25T07:03:04.131Z,26.01
2023-05-25T07:05:30.895Z,25.50
2023-05-25T07:07:57.584Z,25.10
2023-05-25T07:10:24.255Z,25.01
2023-05-25T07:12:50.941Z,24.81
2023-05-25T07:15:19.311Z,25.02
2023-05-25T07:17:45.954Z,25.08
2023-05-25T07:20:13.395Z,24.99
2023-05-25T07:22:40.167Z,24.73
2023-05-25T07:25:07.533Z,25.07
2023-05-25T07:27:34.239Z,25.30
2023-05-25T07:30:00.883Z,25.49
2023-05-25T07:32:28.963Z,25.64
2023-05-25T07:34:55.678Z,26.18
2023-05-25T07:37:23.749Z,26.03
2023-05-25T07:39:50.479Z,25.96
2023-05-25T07:42:17.443Z,25.68
2023-05-25T07:44:44.088Z,25.97
2023-05-25T07:47:11.414Z,26.11
2023-05-25T07:49:39.766Z,26.25
2023-05-25T07:52:06.354Z,26.43
2023-05-25T07:54:33.029Z,26.60
2023-05-25T07:56:59.658Z,26.52
2023-05-25T07:59:26.296Z,26.66
2023-05-25T08:01:52.988Z,26.52
2023-05-25T08:04:19.821Z,26.35
2023-05-25T08:06:48.035Z,26.10
2023-05-25T08:09:14.703Z,25.63
2023-05-25T08:11:41.876Z,25.28
2023-05-25T08:14:08.486Z,25.92
2023-05-25T08:16:35.299Z,26.42
2023-05-25T08:19:02.025Z,26.75
2023-05-25T08:21:28.663Z,27.15
2023-05-25T08:23:56.875Z,26.82
2023-05-25T08:26:41.400Z,26.95
2023-05-25T08:29:10.215Z,26.93
2023-05-25T08:31:37.021Z,27.44
2023-05-25T08:34:03.856Z,27.35
2023-05-25T08:36:30.479Z,27.50
2023-05-25T08:38:58.782Z,27.43
2023-05-25T08:41:25.419Z,27.23
2023-05-25T08:43:52.440Z,28.24
2023-05-25T08:46:29.043Z,28.35
2023-05-25T08:48:59.449Z,27.67
2023-05-25T08:51:26.361Z,27.41
2023-05-25T08:53:55.154Z,27.73
2023-05-25T08:56:26.923Z,28.10
2023-05-25T08:59:01.414Z,28.90
2023-05-25T09:01:33.115Z,29.45
2023-05-25T09:04:01.428Z,28.39
2023-05-25T09:06:28.856Z,28.04
2023-05-25T09:08:55.538Z,27.74
2023-05-25T09:11:37.450Z,27.96
2023-05-25T09:14:07.316Z,27.79
2023-05-25T09:16:36.459Z,27.18
2023-05-25T09:19:03.592Z,26.82
2023-05-25T09:21:30.270Z,26.51
2023-05-25T09:23:58.491Z,26.08
2023-05-25T09:26:26.620Z,26.55
2023-05-25T09:28:53.293Z,26.83
2023-05-25T09:31:23.184Z,27.41
2023-05-25T09:33:49.831Z,27.18
2023-05-25T09:36:18.823Z,27.46
2023-05-25T09:38:45.902Z,28.39
2023-05-25T09:41:13.384Z,28.53
2023-05-25T09:43:46.694Z,28.48
2023-05-25T09:46:15.919Z,27.94
2023-05-25T09:48:42.882Z,27.59
2023-05-25T09:51:09.658Z,27.66
2023-05-25T09:53:36.722Z,27.79
2023-05-25T09:56:04.279Z,27.97
2023-05-25T09:58:31.222Z,28.05
2023-05-25T10:01:00.133Z,28.50
2023-05-25T10:03:26.831Z,29.10
2023-05-25T10:05:55.422Z,29.69
2023-05-25T10:08:23.006Z,30.02
2023-05-25T10:10:50.377Z,29.34
2023-05-25T10:13:21.010Z,28.18
2023-05-25T10:15:51.476Z,27.49
2023-05-25T10:18:25.065Z,27.01
2023-05-25T10:20:56.509Z,27.46
2023-05-25T10:23:24.788Z,28.39
2023-05-25T10:25:59.542Z,28.58
2023-05-25T10:28:29.132Z,28.02
2023-05-25T10:30:57.250Z,27.69
2023-05-25T10:33:25.319Z,27.54
2023-05-25T10:36:03.043Z,27.37
2023-05-25T10:38:37.427Z,27.72
2023-05-25T10:41:05.610Z,28.04
2023-05-25T10:43:32.829Z,27.88
2023-05-25T10:45:59.623Z,28.32
2023-05-25T10:48:36.664Z,29.33
2023-05-25T10:51:03.525Z,29.40
2023-05-25T10:53:30.397Z,28.72
2023-05-25T10:56:05.142Z,27.90
2023-05-25T10:58:32.535Z,27.28
2023-05-25T11:01:00.837Z,27.00
2023-05-25T11:03:53.648Z,26.72
2023-05-25T11:06:21.789Z,26.80
2023-05-25T11:08:51.421Z,27.00
2023-05-25T11:11:18.164Z,27.08
2023-05-25T11:13:45.684Z,27.32
2023-05-25T11:16:22.221Z,27.58
2023-05-25T11:18:55.225Z,27.68
2023-05-25T11:21:40.735Z,27.44
2023-05-25T11:24:13.828Z,27.41
2023-05-25T11:26:53.674Z,27.42
2023-05-25T11:29:20.676Z,27.37
2023-05-25T11:31:52.256Z,27.58
2023-05-25T11:34:22.009Z,27.65
2023-05-25T11:36:48.604Z,27.89
2023-05-25T11:39:22.414Z,27.96
2023-05-25T11:41:52.729Z,27.98
2023-05-25T11:44:27.003Z,27.86
2023-05-25T11:46:54.448Z,27.96
2023-05-25T11:49:23.279Z,27.86
2023-05-25T11:51:50.285Z,27.68
2023-05-25T11:54:24.416Z,27.49
2023-05-25T11:56:51.251Z,27.33
2023-05-25T11:59:19.729Z,27.25
2023-05-25T12:01:56.573Z,27.70
2023-05-25T12:04:24.745Z,28.24
2023-05-25T12:06:51.612Z,28.28
2023-05-25T12:09:22.234Z,28.16
2023-05-25T12:11:49.269Z,27.70
2023-05-25T12:14:16.105Z,27.26
2023-05-25T12:16:43.299Z,27.02
2023-05-25T12:19:10.531Z,26.85
2023-05-25T12:21:40.158Z,26.71
2023-05-25T12:24:07.570Z,26.68
2023-05-25T12:26:34.775Z,26.73
2023-05-25T12:29:02.242Z,26.83
2023-05-25T12:31:30.406Z,26.78
2023-05-25T12:34:05.323Z,26.95
2023-05-25T12:36:50.940Z,26.68
2023-05-25T12:39:18.493Z,26.66
2023-05-25T12:41:47.576Z,26.56
2023-05-25T12:44:23.056Z,26.63
2023-05-25T12:46:51.071Z,26.61
2023-05-25T12:49:31.511Z,26.64
2023-05-25T12:52:02.365Z,26.64
2023-05-25T12:54:37.790Z,26.81
2023-05-25T12:57:05.390Z,26.91
2023-05-25T12:59:32.564Z,26.73
2023-05-25T13:01:59.682Z,26.78
2023-05-25T13:04:27.306Z,26.85
2023-05-25T13:06:54.630Z,26.92
2023-05-25T13:09:24.576Z,27.02
2023-05-25T13:11:51.243Z,27.07
2023-05-25T13:14:17.853Z,26.98
2023-05-25T13:16:44.483Z,26.95
2023-05-25T13:19:11.192Z,27.03
2023-05-25T13:21:37.865Z,27.03
2023-05-25T13:24:04.625Z,26.96
2023-05-25T13:26:32.702Z,27.02
2023-05-25T13:28:59.462Z,27.01
2023-05-25T13:31:26.111Z,26.97
2023-05-25T13:33:53.812Z,27.00
2023-05-25T13:36:20.489Z,27.09
2023-05-25T13:38:47.341Z,27.07
2023-05-25T13:41:13.952Z,27.02
2023-05-25T13:43:42.249Z,27.09
2023-05-25T13:46:11.622Z,27.11
2023-05-25T13:48:45.322Z,27.07
2023-05-25T13:51:12.002Z,27.08
2023-05-25T13:53:38.588Z,27.18
2023-05-25T13:56:05.723Z,27.01
2023-05-25T13:58:32.694Z,27.04
2023-05-25T14:01:00.936Z,27.00
2023-05-25T14:03:28.199Z,27.10
2023-05-25T14:05:54.953Z,27.19
2023-05-25T14:08:21.548Z,27.06
2023-05-25T14:10:48.293Z,27.00
2023-05-25T14:13:14.938Z,26.94
2023-05-25T14:15:41.717Z,26.96
2023-05-25T14:18:10.031Z,26.96
2023-05-25T14:20:36.863Z,26.97
2023-05-25T14:23:03.603Z,26.94
2023-05-25T14:25:30.259Z,26.87
2023-05-25T14:27:56.905Z,26.70
2023-05-25T14:30:23.777Z,26.73
2023-05-25T14:32:50.740Z,26.74
2023-05-25T14:35:19.199Z,26.77
2023-05-25T14:37:46.296Z,26.78
2023-05-25T14:40:13.456Z,26.57
2023-05-25T14:42:40.696Z,26.45
2023-05-25T14:45:10.072Z,26.24
2023-05-25T14:47:37.995Z,26.32
2023-05-25T14:50:05.464Z,26.25
2023-05-25T14:52:33.542Z,26.23
2023-05-25T14:55:00.173Z,26.23
2023-05-25T14:57:26.821Z,26.38
2023-05-25T14:59:53.574Z,26.41
2023-05-25T15:02:20.529Z,26.34
2023-05-25T15:04:47.327Z,26.31
2023-05-25T15:07:14.508Z,26.28
2023-05-25T15:09:42.570Z,26.37
2023-05-25T15:12:09.239Z,26.36
2023-05-25T15:14:35.866Z,26.30
2023-05-25T15:17:02.479Z,26.49
2023-05-25T15:19:29.125Z,26.42
2023-05-25T15:21:55.786Z,26.40
2023-05-25T15:24:22.493Z,26.31
2023-05-25T15:26:50.545Z,26.52
2023-05-25T15:29:17.234Z,26.45
2023-05-25T15:31:43.931Z,26.51
2023-05-25T15:34:10.700Z,26.38
2023-05-25T15:36:37.840Z,26.34
2023-05-25T15:39:04.461Z,26.39
2023-05-25T15:41:31.070Z,26.46
2023-05-25T15:43:59.065Z,26.61
2023-05-25T15:46:26.042Z,26.64
2023-05-25T15:48:53.193Z,26.54
2023-05-25T15:51:19.930Z,26.57
2023-05-25T15:53:46.832Z,26.57
2023-05-25T15:56:13.695Z,26.44
2023-05-25T15:58:40.488Z,26.55
2023-05-25T16:01:08.708Z,26.68
2023-05-25T16:03:36.116Z,26.33
2023-05-25T16:06:02.804Z,26.30
2023-05-25T16:08:29.421Z,26.36
2023-05-25T16:10:56.129Z,26.35
2023-05-25T16:13:23.420Z,26.45
2023-05-25T16:15:50.046Z,26.39
2023-05-25T16:18:18.158Z,26.52
2023-05-25T16:20:44.856Z,26.51
2023-05-25T16:23:11.499Z,26.60
2023-05-25T16:25:38.230Z,26.53
2023-05-25T16:28:04.961Z,26.40
2023-05-25T16:30:31.644Z,26.48
2023-05-25T16:32:58.585Z,26.48
2023-05-25T16:35:26.773Z,26.48
2023-05-25T16:37:53.393Z,26.48
2023-05-25T16:40:20.079Z,26.49
2023-05-25T16:42:46.751Z,26.46
2023-05-25T16:45:13.356Z,26.67
2023-05-25T16:47:40.075Z,26.68
2023-05-25T16:50:08.116Z,26.58
2023-05-25T16:52:36.532Z,26.68
2023-05-25T16:55:03.670Z,26.60
2023-05-25T16:57:30.312Z,26.41
2023-05-25T16:59:56.961Z,26.37
2023-05-25T17:02:23.821Z,26.30
2023-05-25T17:04:50.525Z,26.27
2023-05-25T17:07:17.126Z,26.36
2023-05-25T17:09:45.158Z,26.35
2023-05-25T17:12:11.954Z,26.37
2023-05-25T17:14:38.621Z,26.36
2023-05-25T17:17:05.550Z,26.50
2023-05-25T17:19:32.219Z,26.38
2023-05-25T17:21:58.881Z,26.39
2023-05-25T17:24:25.580Z,26.34
2023-05-25T17:26:53.610Z,26.35
2023-05-25T17:29:20.267Z,26.37
2023-05-25T17:31:48.669Z,26.38
2023-05-25T17:34:15.932Z,26.34
2023-05-25T17:36:42.586Z,26.30
2023-05-25T17:39:09.224Z,26.33
2023-05-25T17:41:35.905Z,26.32
2023-05-25T17:44:04.041Z,26.30
2023-05-25T17:46:30.822Z,26.31
2023-05-25T17:48:57.518Z,26.31
2023-05-25T17:51:24.162Z,26.28
2023-05-25T17:53:50.925Z,26.31
2023-05-25T17:56:17.621Z,26.28
2023-05-25T17:58:44.254Z,26.44
2023-05-25T18:01:12.414Z,26.38
2023-05-25T18:03:39.175Z,26.42
2023-05-25T18:06:06.213Z,26.34
2023-05-25T18:08:33.048Z,26.40
2023-05-25T18:10:59.670Z,26.37
2023-05-25T18:13:26.354Z,26.37
2023-05-25T18:15:53.235Z,26.42
2023-05-25T18:18:21.238Z,26.43
2023-05-25T18:20:48.005Z,26.42
2023-05-25T18:23:14.881Z,26.43
2023-05-25T18:25:41.586Z,26.60
2023-05-25T18:28:09.331Z,26.45
2023-05-25T18:30:36.053Z,26.37
2023-05-25T18:33:02.916Z,26.52
2023-05-25T18:35:30.896Z,26.55
2023-05-25T18:37:57.831Z,26.50
2023-05-25T18:40:24.445Z,26.55
2023-05-25T18:42:51.073Z,26.54
2023-05-25T18:45:17.782Z,26.55
2023-05-25T18:47:44.404Z,26.58
2023-05-25T18:50:11.326Z,26.69
2023-05-25T18:52:39.597Z,26.66
2023-05-25T18:55:07.405Z,26.63
2023-05-25T18:57:34.019Z,26.56
2023-05-25T19:00:00.831Z,26.74
2023-05-25T19:02:27.805Z,26.74
2023-05-25T19:04:54.454Z,26.81
2023-05-25T19:07:21.271Z,26.88
2023-05-25T19:09:49.371Z,26.78
2023-05-25T19:12:16.135Z,26.83
2023-05-25T19:14:42.846Z,27.06
2023-05-25T19:17:09.459Z,27.26
2023-05-25T19:19:36.488Z,27.39
2023-05-25T19:22:03.074Z,27.51
2023-05-25T19:24:29.801Z,27.35
2023-05-25T19:26:57.858Z,27.38
2023-05-25T19:29:24.493Z,27.11
2023-05-25T19:31:52.229Z,27.19
2023-05-25T19:34:19.305Z,26.46
2023-05-25T19:36:47.041Z,25.55
2023-05-25T19:39:13.829Z,25.02
2023-05-25T19:41:40.812Z,24.63
2023-05-25T19:44:08.874Z,24.36
2023-05-25T19:46:41.650Z,24.24
2023-05-25T19:49:08.295Z,24.13
2023-05-25T19:51:34.925Z,24.17
2023-05-25T19:54:01.752Z,23.99
2023-05-25T19:56:28.389Z,23.91
2023-05-25T19:58:55.021Z,23.76
2023-05-25T20:01:23.275Z,23.56
2023-05-25T20:03:50.943Z,23.58
2023-05-25T20:06:18.036Z,23.58
2023-05-25T20:08:44.751Z,23.47
2023-05-25T20:11:11.494Z,23.47
2023-05-25T20:13:38.139Z,23.41
2023-05-25T20:16:05.187Z,23.40
2023-05-25T20:18:33.235Z,23.27
2023-05-25T20:20:59.858Z,23.20
2023-05-25T20:23:26.819Z,23.15
2023-05-25T20:25:53.695Z,23.05
2023-05-25T20:28:20.355Z,22.89
2023-05-25T20:30:47.160Z,22.78
2023-05-25T20:33:13.898Z,22.75
2023-05-25T20:35:41.927Z,22.62
2023-05-25T20:38:08.841Z,22.67
2023-05-25T20:40:35.642Z,22.69
2023-05-25T20:43:04.355Z,22.73
2023-05-25T20:45:31.202Z,22.50
2023-05-25T20:48:02.270Z,22.46
2023-05-25T20:50:29.626Z,22.35
2023-05-25T20:52:58.058Z,22.23
2023-05-25T20:55:25.720Z,22.15
2023-05-25T20:57:52.361Z,22.21
2023-05-25T21:00:19.465Z,22.09
2023-05-25T21:02:46.269Z,22.03
2023-05-25T21:05:13.000Z,21.92
2023-05-25T21:07:39.856Z,22.05
2023-05-25T21:10:08.992Z,21.87
2023-05-25T21:12:36.297Z,21.90
2023-05-25T21:15:03.260Z,21.90
2023-05-25T21:17:29.952Z,21.82
2023-05-25T21:19:56.722Z,21.81
2023-05-25T21:22:23.526Z,21.67
2023-05-25T21:24:50.150Z,21.67
2023-05-25T21:27:18.210Z,21.64
2023-05-25T21:29:44.871Z,21.58
2023-05-25T21:32:11.804Z,21.58
2023-05-25T21:34:38.458Z,21.52
2023-05-25T21:37:05.153Z,21.52
2023-05-25T21:39:31.783Z,21.37
2023-05-25T21:41:58.389Z,21.23
2023-05-25T21:44:26.550Z,21.18
2023-05-25T21:46:53.261Z,21.18
2023-05-25T21:49:19.987Z,21.14
2023-05-25T21:51:46.591Z,21.09
2023-05-25T21:54:13.265Z,21.07
2023-05-25T21:56:40.222Z,21.08
2023-05-25T21:59:06.881Z,21.04
2023-05-25T22:01:35.072Z,21.04
2023-05-25T22:04:01.982Z,20.98
2023-05-25T22:06:28.620Z,20.98
2023-05-25T22:08:55.244Z,20.92
2023-05-25T22:11:22.063Z,20.90
2023-05-25T22:13:48.703Z,20.91
2023-05-25T22:16:15.324Z,20.79
2023-05-25T22:18:43.628Z,20.81
2023-05-25T22:21:10.299Z,20.68
2023-05-25T22:23:36.946Z,20.56
2023-05-25T22:26:03.579Z,20.57
2023-05-25T22:28:30.211Z,20.53
2023-05-25T22:30:56.981Z,20.45
2023-05-25T22:33:24.703Z,20.40
2023-05-25T22:35:52.693Z,20.39
2023-05-25T22:38:19.455Z,20.36
2023-05-25T22:40:46.081Z,20.35
2023-05-25T22:43:12.801Z,20.20
2023-05-25T22:45:40.378Z,20.13
2023-05-25T22:48:07.137Z,20.01
2023-05-25T22:50:34.114Z,19.94
2023-05-25T22:53:02.274Z,19.85
2023-05-25T22:55:29.118Z,19.84
2023-05-25T22:57:56.951Z,19.85
2023-05-25T23:00:23.734Z,19.74
2023-05-25T23:02:50.450Z,19.75
2023-05-25T23:05:17.433Z,19.75
2023-05-25T23:07:44.126Z,19.70
2023-05-25T23:10:12.162Z,19.59
2023-05-25T23:12:38.981Z,19.54
2023-05-25T23:15:06.569Z,19.60
2023-05-25T23:17:33.241Z,19.47
2023-05-25T23:20:00.040Z,19.45
2023-05-25T23:22:26.867Z,19.49
2023-05-25T23:24:53.802Z,19.39
2023-05-25T23:27:21.934Z,19.37
2023-05-25T23:29:48.567Z,19.22
2023-05-25T23:32:15.348Z,19.36
2023-05-25T23:34:42.196Z,19.32
2023-05-25T23:37:09.218Z,19.18
2023-05-25T23:39:35.831Z,19.02
2023-05-25T23:42:02.619Z,19.06
2023-05-25T23:44:30.640Z,19.13
2023-05-25T23:46:57.307Z,19.29
2023-05-25T23:49:24.000Z,19.37
2023-05-25T23:51:50.742Z,19.43
2023-05-25T23:54:17.327Z,19.36
2023-05-25T23:56:44.112Z,19.17
2023-05-25T23:59:10.742Z,19.04
